createdAt,value
2023-01-01T00:01:48.700Z,33.70
2023-01-01T00:04:18.823Z,30.60
2023-01-01T00:06:48.615Z,28.07
2023-01-01T00:09:30.745Z,25.30
2023-01-01T00:12:03.104Z,21.73
2023-01-01T00:14:32.829Z,22.53
2023-01-01T00:17:02.649Z,20.33
2023-01-01T00:19:32.374Z,23.90
2023-01-01T00:22:09.985Z,22.10
2023-01-01T00:24:50.699Z,20.53
2023-01-01T00:27:23.497Z,26.17
2023-01-01T00:29:53.220Z,22.57
2023-01-01T00:32:23.350Z,21.53
2023-01-01T00:34:53.244Z,20.17
2023-01-01T00:37:22.986Z,20.97
2023-01-01T00:39:52.679Z,19.43
2023-01-01T00:42:25.840Z,20.30
2023-01-01T00:44:55.564Z,20.40
2023-01-01T00:47:25.275Z,16.47
2023-01-01T00:49:55.006Z,19.53
2023-01-01T00:52:24.719Z,20.40
2023-01-01T00:54:54.427Z,19.53
2023-01-01T00:57:26.757Z,18.70
2023-01-01T00:59:56.461Z,21.10
2023-01-01T01:02:26.296Z,19.87
2023-01-01T01:04:56.393Z,16.90
2023-01-01T01:07:26.245Z,22.93
2023-01-01T01:09:55.988Z,22.83
2023-01-01T01:12:28.312Z,20.53
2023-01-01T01:14:58.023Z,22.37
2023-01-01T01:17:27.768Z,25.13
2023-01-01T01:19:57.492Z,25.30
2023-01-01T01:22:28.917Z,30.77
2023-01-01T01:24:59.238Z,27.37
2023-01-01T01:27:31.556Z,26.00
2023-01-01T01:30:01.288Z,28.50
2023-01-01T01:32:30.993Z,28.30
2023-01-01T01:35:00.702Z,29.33
2023-01-01T01:37:30.448Z,24.53
2023-01-01T01:40:00.194Z,22.00
2023-01-01T01:42:32.581Z,24.90
2023-01-01T01:45:03.971Z,25.37
2023-01-01T01:47:38.384Z,27.43
2023-01-01T01:50:14.348Z,28.13
2023-01-01T01:52:55.615Z,28.87
2023-01-01T01:55:25.590Z,28.83
2023-01-01T01:57:58.248Z,24.10
2023-01-01T02:00:28.133Z,22.33
2023-01-01T02:03:03.469Z,28.60
2023-01-01T02:05:34.438Z,30.50
2023-01-01T02:08:06.036Z,37.43
2023-01-01T02:10:37.382Z,44.70
2023-01-01T02:13:09.733Z,46.40
2023-01-01T02:15:47.365Z,47.77
2023-01-01T02:18:21.327Z,47.50
2023-01-01T02:20:56.884Z,49.57
2023-01-01T02:23:52.276Z,43.30
2023-01-01T02:26:43.532Z,42.80
2023-01-01T02:29:25.363Z,40.67
2023-01-01T02:32:02.603Z,38.17
2023-01-01T02:34:38.022Z,36.23
2023-01-01T02:37:11.608Z,45.50
2023-01-01T02:39:47.637Z,39.07
2023-01-01T02:42:19.619Z,37.37
2023-01-01T02:44:55.902Z,37.20
2023-01-01T02:47:25.732Z,37.17
2023-01-01T02:50:05.715Z,31.57
2023-01-01T02:53:02.963Z,32.97
2023-01-01T02:55:44.436Z,32.53
2023-01-01T02:58:35.758Z,33.93
2023-01-01T03:01:16.043Z,35.40
2023-01-01T03:03:54.627Z,32.40
2023-01-01T03:06:36.928Z,32.87
2023-01-01T03:09:17.635Z,29.73
2023-01-01T03:11:59.863Z,27.77
2023-01-01T03:14:40.862Z,27.67
2023-01-01T03:17:20.830Z,26.87
2023-01-01T03:19:52.290Z,26.73
2023-01-01T03:22:24.570Z,24.17
2023-01-01T03:24:57.203Z,27.50
2023-01-01T03:27:33.063Z,27.93
2023-01-01T03:30:08.406Z,32.07
2023-01-01T03:32:56.671Z,26.27
2023-01-01T03:35:30.383Z,28.17
2023-01-01T03:38:03.488Z,22.80
2023-01-01T03:40:36.997Z,21.93
2023-01-01T03:43:11.088Z,22.80
2023-01-01T03:45:44.662Z,17.87
2023-01-01T03:48:17.189Z,13.27
2023-01-01T03:50:58.995Z,13.30
2023-01-01T03:53:41.710Z,14.27
2023-01-01T03:56:20.682Z,15.10
2023-01-01T03:58:55.795Z,15.37
2023-01-01T04:01:29.495Z,12.57
2023-01-01T04:04:03.945Z,10.70
2023-01-01T04:06:35.632Z,12.13
2023-01-01T04:09:07.443Z,13.87
2023-01-01T04:11:52.459Z,16.00
2023-01-01T04:14:32.338Z,11.27
2023-01-01T04:17:02.931Z,13.50
2023-01-01T04:19:35.467Z,10.07
2023-01-01T04:22:06.164Z,15.40
2023-01-01T04:24:35.892Z,11.77
2023-01-01T04:27:05.637Z,14.13
2023-01-01T04:29:36.411Z,11.30
2023-01-01T04:32:06.293Z,13.17
2023-01-01T04:34:38.618Z,13.90
2023-01-01T04:37:13.187Z,11.00
2023-01-01T04:39:43.601Z,10.43
2023-01-01T04:42:13.343Z,13.87
2023-01-01T04:44:43.109Z,10.07
2023-01-01T04:47:13.260Z,9.87
2023-01-01T04:49:45.604Z,8.73
2023-01-01T04:52:15.361Z,7.70
2023-01-01T04:54:45.105Z,8.20
2023-01-01T04:57:14.904Z,7.47
2023-01-01T04:59:44.812Z,8.17
2023-01-01T05:02:14.589Z,7.83
2023-01-01T05:04:47.031Z,10.43
2023-01-01T05:07:16.744Z,10.80
2023-01-01T05:09:46.471Z,17.33
2023-01-01T05:12:16.250Z,15.40
2023-01-01T05:14:46.036Z,13.60
2023-01-01T05:17:15.779Z,13.17
2023-01-01T05:19:48.182Z,13.03
2023-01-01T05:22:17.911Z,15.13
2023-01-01T05:24:47.901Z,15.67
2023-01-01T05:27:17.664Z,14.60
2023-01-01T05:29:47.391Z,15.20
2023-01-01T05:34:48.304Z,20.53
2023-01-01T05:37:18.073Z,15.93
2023-01-01T05:39:48.167Z,18.40
2023-01-01T05:42:19.000Z,13.17
2023-01-01T05:44:48.787Z,12.67
2023-01-01T05:47:18.924Z,14.03
2023-01-01T05:49:51.276Z,14.03
2023-01-01T05:52:26.310Z,13.20
2023-01-01T05:54:58.413Z,13.73
2023-01-01T05:57:28.266Z,9.77
2023-01-01T05:59:58.022Z,10.90
2023-01-01T06:02:27.820Z,14.17
2023-01-01T06:05:00.252Z,10.17
2023-01-01T06:07:29.984Z,8.80
2023-01-01T06:09:59.709Z,7.77
2023-01-01T06:12:29.471Z,9.77
2023-01-01T06:14:59.170Z,15.63
2023-01-01T06:17:28.905Z,12.40
2023-01-01T06:20:01.233Z,12.63
2023-01-01T06:22:31.058Z,11.03
2023-01-01T06:25:00.753Z,11.03
2023-01-01T06:27:30.460Z,12.63
2023-01-01T06:30:00.540Z,13.03
2023-01-01T06:32:30.424Z,12.13
2023-01-01T06:35:02.993Z,11.57
2023-01-01T06:37:32.724Z,13.67
2023-01-01T06:40:02.450Z,13.37
2023-01-01T06:42:34.181Z,12.70
2023-01-01T06:45:04.036Z,11.87
2023-01-01T06:47:37.035Z,13.77
2023-01-01T06:50:10.815Z,12.37
2023-01-01T06:52:40.566Z,11.97
2023-01-01T06:55:11.236Z,15.80
2023-01-01T06:57:41.046Z,11.50
2023-01-01T07:00:12.205Z,14.30
2023-01-01T07:02:42.047Z,12.30
2023-01-01T07:05:14.707Z,10.20
2023-01-01T07:07:44.556Z,11.20
2023-01-01T07:10:14.406Z,14.93
2023-01-01T07:12:44.129Z,12.90
2023-01-01T07:15:14.746Z,13.23
2023-01-01T07:17:44.497Z,15.23
2023-01-01T07:20:17.078Z,14.47
2023-01-01T07:22:46.835Z,14.33
2023-01-01T07:25:18.377Z,11.00
2023-01-01T07:27:48.115Z,19.93
2023-01-01T07:30:18.186Z,14.83
2023-01-01T07:32:47.911Z,14.50
2023-01-01T07:35:20.350Z,17.50
2023-01-01T07:37:50.063Z,12.07
2023-01-01T07:40:19.911Z,15.97
2023-01-01T07:42:49.608Z,20.33
2023-01-01T07:45:20.671Z,16.07
2023-01-01T07:47:53.748Z,19.50
2023-01-01T07:50:27.559Z,16.30
2023-01-01T07:52:57.404Z,22.37
2023-01-01T07:55:27.723Z,15.20
2023-01-01T07:57:57.446Z,21.77
2023-01-01T08:00:27.154Z,15.63
2023-01-01T08:02:57.046Z,18.43
2023-01-01T08:05:29.484Z,18.40
2023-01-01T08:07:59.394Z,19.63
2023-01-01T08:10:29.173Z,12.67
2023-01-01T08:13:02.631Z,14.23
2023-01-01T08:15:32.618Z,14.53
2023-01-01T08:18:03.261Z,17.00
2023-01-01T08:20:36.614Z,22.47
2023-01-01T08:23:07.607Z,16.80
2023-01-01T08:25:38.048Z,19.47
2023-01-01T08:28:08.100Z,14.17
2023-01-01T08:30:37.876Z,16.87
2023-01-01T08:33:07.612Z,20.67
2023-01-01T08:35:44.130Z,22.57
2023-01-01T08:38:15.651Z,15.03
2023-01-01T08:40:45.426Z,17.93
2023-01-01T08:43:15.146Z,18.30
2023-01-01T08:45:45.495Z,17.67
2023-01-01T08:48:15.196Z,18.23
2023-01-01T08:50:47.565Z,27.30
2023-01-01T08:53:17.279Z,21.83
2023-01-01T08:55:47.004Z,19.40
2023-01-01T08:58:16.715Z,22.97
2023-01-01T09:00:46.426Z,19.87
2023-01-01T09:03:16.335Z,20.37
2023-01-01T09:05:48.924Z,20.70
2023-01-01T09:08:19.446Z,19.30
2023-01-01T09:10:49.574Z,22.47
2023-01-01T09:13:23.474Z,18.97
2023-01-01T09:15:53.335Z,24.73
2023-01-01T09:18:23.243Z,18.43
2023-01-01T09:20:55.596Z,16.37
2023-01-01T09:23:25.289Z,24.47
2023-01-01T09:25:55.037Z,20.50
2023-01-01T09:28:26.114Z,17.53
2023-01-01T09:30:55.966Z,18.33
2023-01-01T09:33:25.693Z,16.90
2023-01-01T09:35:58.044Z,20.07
2023-01-01T09:38:27.799Z,21.63
2023-01-01T09:41:09.769Z,19.00
2023-01-01T09:43:47.954Z,21.50
2023-01-01T09:46:18.120Z,21.27
2023-01-01T09:48:53.814Z,19.17
2023-01-01T09:51:29.274Z,22.00
2023-01-01T09:54:04.577Z,17.33
2023-01-01T09:56:36.396Z,16.90
2023-01-01T09:59:06.328Z,23.40
2023-01-01T10:01:45.601Z,23.67
2023-01-01T10:04:36.954Z,19.30
2023-01-01T10:07:17.703Z,24.80
2023-01-01T10:09:57.015Z,18.23
2023-01-01T10:12:39.615Z,18.63
2023-01-01T10:15:17.125Z,20.23
2023-01-01T10:17:49.666Z,18.47
2023-01-01T10:20:24.891Z,20.47
2023-01-01T10:23:01.234Z,23.83
2023-01-01T10:25:34.597Z,20.67
2023-01-01T10:28:07.798Z,26.30
2023-01-01T10:30:37.542Z,21.57
2023-01-01T10:33:15.208Z,23.73
2023-01-01T10:35:50.611Z,20.50
2023-01-01T10:38:26.605Z,20.17
2023-01-01T10:41:03.168Z,19.87
2023-01-01T10:43:32.901Z,22.83
2023-01-01T10:46:04.935Z,19.17
2023-01-01T10:48:36.522Z,16.63
2023-01-01T10:51:09.713Z,17.03
2023-01-01T10:53:44.807Z,17.53
2023-01-01T10:56:16.458Z,17.53
2023-01-01T10:58:48.634Z,21.77
2023-01-01T11:01:24.947Z,18.63
2023-01-01T11:04:01.948Z,14.00
2023-01-01T11:06:35.718Z,19.50
2023-01-01T11:09:22.182Z,16.63
2023-01-01T11:12:05.357Z,19.00
2023-01-01T11:14:41.899Z,18.50
2023-01-01T11:17:12.647Z,17.13
2023-01-01T11:19:50.773Z,13.13
2023-01-01T11:22:44.103Z,13.37
2023-01-01T11:25:28.117Z,12.77
2023-01-01T11:28:21.408Z,17.83
2023-01-01T11:31:03.908Z,13.93
2023-01-01T11:33:36.926Z,16.77
2023-01-01T11:36:08.939Z,13.23
2023-01-01T11:38:38.890Z,17.00
2023-01-01T11:41:11.526Z,14.07
2023-01-01T11:43:46.881Z,19.20
2023-01-01T11:46:25.997Z,23.23
2023-01-01T11:48:57.274Z,16.67
2023-01-01T11:51:35.191Z,17.50
2023-01-01T11:54:13.833Z,14.77
2023-01-01T11:56:46.346Z,14.07
2023-01-01T11:59:19.595Z,15.93
2023-01-01T12:01:52.293Z,17.87
2023-01-01T12:04:28.688Z,13.37
2023-01-01T12:07:03.059Z,15.90
2023-01-01T12:09:40.397Z,15.87
2023-01-01T12:12:21.165Z,16.63
2023-01-01T12:14:59.101Z,18.47
2023-01-01T12:17:35.655Z,14.87
2023-01-01T12:20:09.596Z,14.50
2023-01-01T12:22:39.426Z,15.67
2023-01-01T12:25:14.894Z,16.50
2023-01-01T12:28:03.737Z,13.13
2023-01-01T12:30:41.989Z,13.57
2023-01-01T12:33:24.879Z,13.43
2023-01-01T12:36:11.197Z,12.13
2023-01-01T12:38:54.023Z,14.80
2023-01-01T12:41:33.725Z,17.53
2023-01-01T12:44:19.427Z,15.33
2023-01-01T12:46:56.569Z,14.70
2023-01-01T12:49:41.650Z,15.00
2023-01-01T12:52:25.474Z,11.43
2023-01-01T12:55:25.159Z,19.53
2023-01-01T12:58:00.652Z,12.63
2023-01-01T13:00:35.208Z,12.43
2023-01-01T13:03:21.405Z,12.33
2023-01-01T13:05:54.435Z,16.43
2023-01-01T13:08:24.176Z,9.90
2023-01-01T13:10:57.102Z,11.07
2023-01-01T13:13:27.040Z,15.40
2023-01-01T13:16:00.308Z,13.80
2023-01-01T13:18:35.149Z,18.20
2023-01-01T13:21:10.715Z,14.00
2023-01-01T13:23:57.631Z,16.23
2023-01-01T13:26:41.497Z,17.77
2023-01-01T13:29:34.435Z,11.37
2023-01-01T13:32:09.286Z,15.07
2023-01-01T13:35:06.011Z,13.33
2023-01-01T13:37:49.626Z,14.17
2023-01-01T13:41:00.682Z,13.47
2023-01-01T13:43:32.973Z,12.63
2023-01-01T13:46:14.252Z,14.53
2023-01-01T13:49:22.946Z,14.70
2023-01-01T13:52:32.700Z,18.50
2023-01-01T13:55:45.493Z,12.43
2023-01-01T13:58:38.928Z,13.23
2023-01-01T14:01:40.283Z,14.43
2023-01-01T14:04:20.221Z,14.43
2023-01-01T14:06:53.857Z,15.13
2023-01-01T14:09:26.975Z,15.70
2023-01-01T14:11:56.765Z,12.87
2023-01-01T14:14:29.489Z,10.87
2023-01-01T14:17:03.354Z,23.10
2023-01-01T14:19:33.123Z,13.90
2023-01-01T14:22:03.430Z,12.37
2023-01-01T14:24:38.394Z,13.43
2023-01-01T14:27:09.026Z,15.67
2023-01-01T14:29:39.054Z,13.67
2023-01-01T14:32:17.361Z,10.57
2023-01-01T14:34:47.518Z,13.30
2023-01-01T14:37:26.686Z,13.13
2023-01-01T14:40:20.911Z,14.37
2023-01-01T14:42:52.740Z,12.60
2023-01-01T14:45:22.603Z,13.43
2023-01-01T14:47:55.632Z,11.57
2023-01-01T14:50:29.667Z,16.53
2023-01-01T14:53:06.493Z,14.00
2023-01-01T14:55:43.433Z,13.80
2023-01-01T14:58:16.622Z,16.63
2023-01-01T15:00:46.398Z,14.47
2023-01-01T15:03:18.306Z,11.47
2023-01-01T15:05:49.727Z,14.10
2023-01-01T15:08:25.872Z,13.00
2023-01-01T15:10:59.626Z,14.23
2023-01-01T15:13:31.136Z,11.90
2023-01-01T15:16:19.801Z,11.03
2023-01-01T15:18:50.732Z,12.53
2023-01-01T15:21:34.860Z,13.67
2023-01-01T15:24:07.403Z,12.53
2023-01-01T15:26:44.366Z,12.80
2023-01-01T15:29:19.314Z,10.10
2023-01-01T15:31:52.585Z,11.97
2023-01-01T15:34:27.434Z,13.87
2023-01-01T15:36:59.573Z,13.40
2023-01-01T15:39:33.095Z,12.57
2023-01-01T15:42:05.434Z,17.20
2023-01-01T15:44:38.125Z,12.93
2023-01-01T15:47:16.794Z,14.27
2023-01-01T15:49:46.617Z,16.73
2023-01-01T15:52:24.420Z,14.13
2023-01-01T15:54:54.245Z,11.60
2023-01-01T15:57:27.960Z,14.00
2023-01-01T15:59:58.336Z,11.87
2023-01-01T16:02:32.498Z,13.33
2023-01-01T16:05:02.898Z,13.60
2023-01-01T16:07:32.698Z,15.23
2023-01-01T16:10:02.418Z,13.83
2023-01-01T16:12:34.755Z,11.07
2023-01-01T16:15:04.475Z,10.33
2023-01-01T16:17:34.289Z,12.60
2023-01-01T16:20:04.022Z,10.50
2023-01-01T16:22:36.807Z,10.77
2023-01-01T16:25:15.965Z,15.60
2023-01-01T16:27:48.709Z,13.03
2023-01-01T16:30:18.865Z,16.03
2023-01-01T16:32:49.296Z,26.93
2023-01-01T16:35:19.392Z,21.57
2023-01-01T16:37:49.104Z,21.40
2023-01-01T16:40:18.976Z,23.77
2023-01-01T16:42:51.442Z,19.43
2023-01-01T16:45:21.893Z,51.73
2023-01-01T16:47:51.656Z,35.77
2023-01-01T16:50:21.523Z,16.30
2023-01-01T16:52:51.262Z,15.20
2023-01-01T16:55:21.319Z,17.17
2023-01-01T16:58:13.917Z,11.43
2023-01-01T17:00:43.440Z,10.37
2023-01-01T17:03:13.241Z,12.37
2023-01-01T17:05:44.696Z,12.57
2023-01-01T17:08:14.803Z,10.53
2023-01-01T17:10:44.634Z,10.67
2023-01-01T17:13:17.079Z,11.50
2023-01-01T17:15:46.816Z,12.07
2023-01-01T17:18:16.607Z,11.43
2023-01-01T17:20:46.367Z,7.93
2023-01-01T17:23:16.079Z,8.57
2023-01-01T17:25:45.841Z,9.53
2023-01-01T17:28:18.183Z,8.67
2023-01-01T17:30:48.048Z,8.03
2023-01-01T17:33:17.794Z,7.67
2023-01-01T17:35:47.634Z,7.20
2023-01-01T17:38:17.359Z,11.20
2023-01-01T17:40:47.066Z,9.27
2023-01-01T17:43:19.406Z,8.63
2023-01-01T17:45:49.095Z,7.17
2023-01-01T17:48:18.895Z,9.00
2023-01-01T17:50:48.675Z,10.67
2023-01-01T17:53:18.431Z,10.20
2023-01-01T17:55:48.325Z,10.67
2023-01-01T17:58:20.730Z,9.17
2023-01-01T18:00:50.673Z,6.73
2023-01-01T18:03:22.856Z,10.70
2023-01-01T18:05:52.639Z,9.47
2023-01-01T18:08:22.431Z,9.27
2023-01-01T18:10:56.615Z,11.57
2023-01-01T18:13:29.840Z,7.73
2023-01-01T18:16:03.222Z,7.80
2023-01-01T18:18:33.231Z,7.87
2023-01-01T18:21:05.355Z,8.37
2023-01-01T18:23:35.665Z,8.80
2023-01-01T18:26:06.545Z,9.13
2023-01-01T18:28:39.212Z,7.10
2023-01-01T18:31:10.163Z,9.47
2023-01-01T18:33:40.120Z,8.47
2023-01-01T18:36:12.939Z,7.30
2023-01-01T18:38:43.878Z,6.50
2023-01-01T18:41:32.477Z,11.63
2023-01-01T18:44:05.477Z,7.33
2023-01-01T18:46:37.420Z,11.00
2023-01-01T18:49:12.265Z,12.23
2023-01-01T18:51:42.014Z,11.87
2023-01-01T18:54:16.728Z,11.13
2023-01-01T18:56:47.157Z,13.97
2023-01-01T18:59:23.891Z,13.13
2023-01-01T19:01:53.949Z,11.37
2023-01-01T19:04:23.811Z,10.63
2023-01-01T19:06:53.517Z,9.47
2023-01-01T19:09:25.410Z,7.43
2023-01-01T19:12:00.100Z,11.07
2023-01-01T19:14:33.674Z,8.63
2023-01-01T19:17:03.989Z,7.60
2023-01-01T19:19:41.629Z,8.33
2023-01-01T19:22:24.845Z,11.00
2023-01-01T19:24:54.566Z,8.30
2023-01-01T19:27:27.256Z,9.80
2023-01-01T19:29:59.671Z,11.73
2023-01-01T19:32:29.402Z,8.60
2023-01-01T19:34:59.153Z,7.07
2023-01-01T19:37:28.865Z,9.10
2023-01-01T19:39:58.571Z,10.80
2023-01-01T19:42:28.263Z,11.97
2023-01-01T19:45:01.037Z,7.63
2023-01-01T19:47:30.757Z,9.33
2023-01-01T19:50:00.486Z,8.50
2023-01-01T19:52:30.192Z,6.27
2023-01-01T19:54:59.907Z,10.20
2023-01-01T19:57:29.703Z,6.93
2023-01-01T20:00:02.495Z,10.70
2023-01-01T20:02:48.348Z,8.17
2023-01-01T20:05:18.707Z,8.10
2023-01-01T20:07:48.513Z,9.33
2023-01-01T20:10:18.434Z,10.60
2023-01-01T20:12:48.546Z,8.93
2023-01-01T20:15:20.881Z,8.97
2023-01-01T20:17:50.602Z,9.47
2023-01-01T20:20:20.801Z,8.17
2023-01-01T20:22:50.523Z,10.40
2023-01-01T20:25:20.605Z,10.57
2023-01-01T20:28:02.788Z,11.13
2023-01-01T20:30:37.306Z,8.57
2023-01-01T20:33:07.473Z,8.93
2023-01-01T20:35:49.406Z,9.90
2023-01-01T20:38:19.106Z,9.40
2023-01-01T20:40:48.895Z,8.00
2023-01-01T20:43:18.665Z,9.97
2023-01-01T20:45:51.068Z,8.40
2023-01-01T20:48:20.911Z,7.50
2023-01-01T20:50:50.670Z,10.60
2023-01-01T20:53:20.549Z,10.07
2023-01-01T20:55:50.370Z,10.00
2023-01-01T20:58:20.201Z,9.63
2023-01-01T21:00:52.766Z,9.03
2023-01-01T21:03:22.600Z,10.30
2023-01-01T21:05:52.400Z,6.87
2023-01-01T21:08:22.108Z,10.17
2023-01-01T21:10:51.832Z,7.23
2023-01-01T21:13:23.334Z,7.67
2023-01-01T21:16:00.515Z,9.20
2023-01-01T21:18:32.701Z,8.87
2023-01-01T21:21:04.470Z,6.15
2023-01-01T21:23:34.276Z,9.33
2023-01-01T21:26:04.017Z,7.50
2023-01-01T21:28:36.759Z,9.93
2023-01-01T21:31:14.313Z,6.83
2023-01-01T21:33:45.256Z,7.37
2023-01-01T21:36:20.551Z,7.90
2023-01-01T21:38:51.718Z,7.43
2023-01-01T21:41:25.199Z,8.50
2023-01-01T21:43:57.485Z,7.30
2023-01-01T21:46:44.485Z,5.53
2023-01-01T21:49:20.070Z,5.80
2023-01-01T21:51:53.485Z,7.33
2023-01-01T21:54:28.067Z,9.20
2023-01-01T21:57:00.330Z,8.23
2023-01-01T21:59:39.220Z,10.37
2023-01-01T22:02:33.420Z,8.30
2023-01-01T22:05:05.073Z,6.80
2023-01-01T22:10:32.544Z,4.77
2023-01-01T22:13:03.285Z,5.40
2023-01-01T22:15:40.899Z,5.90
2023-01-01T22:18:24.972Z,6.13
2023-01-01T22:20:54.907Z,4.90
2023-01-01T22:23:38.282Z,5.97
2023-01-01T22:26:17.199Z,3.93
2023-01-01T22:28:49.152Z,3.33
2023-01-01T22:31:22.090Z,3.97
2023-01-01T22:34:00.274Z,4.30
2023-01-01T22:36:31.977Z,4.33
2023-01-01T22:39:05.099Z,4.43
2023-01-01T22:41:34.927Z,4.40
2023-01-01T22:44:07.024Z,3.87
2023-01-01T22:46:39.331Z,3.30
2023-01-01T22:49:19.758Z,4.53
2023-01-01T22:51:50.884Z,4.27
2023-01-01T22:54:20.705Z,4.90
2023-01-01T22:56:50.472Z,3.63
2023-01-01T22:59:20.241Z,3.50
2023-01-01T23:01:50.122Z,9.07
2023-01-01T23:04:22.612Z,5.30
2023-01-01T23:06:52.424Z,5.77
2023-01-01T23:09:22.310Z,5.10
2023-01-01T23:11:52.124Z,5.10
2023-01-01T23:14:38.575Z,4.67
2023-01-01T23:17:08.951Z,5.10
2023-01-01T23:19:41.384Z,3.77
2023-01-01T23:22:11.224Z,3.30
2023-01-01T23:24:41.007Z,3.60
2023-01-01T23:27:11.283Z,4.73
2023-01-01T23:29:40.978Z,4.23
2023-01-01T23:32:10.708Z,4.43
2023-01-01T23:34:43.735Z,5.30
2023-01-01T23:37:14.150Z,9.97
2023-01-01T23:39:43.870Z,4.17
2023-01-01T23:42:13.614Z,6.73
2023-01-01T23:44:44.104Z,5.17
2023-01-01T23:47:15.342Z,3.60
2023-01-01T23:49:47.781Z,7.23
2023-01-01T23:52:17.582Z,5.07
2023-01-01T23:54:47.287Z,7.40
2023-01-01T23:57:17.019Z,4.90
2023-01-01T23:59:46.911Z,5.53
